Aérodrome :
LOGIN :

S'inscrire | Disclaimer

   EN    FR    IT 

 










Légende :    VFR   VFR Marginal   IFR   IFR Intensif   IFR Très Intensif
Visi : 
Plafond : 
>= 8 km
>= 3000ft
5 à 8 km
1000 à 3000 ft
1500m à 5 km
500 à 1000 ft
800 à 1500m
200 à 500 ft
< 800m
< 200 ft
Symboles :   Orages  Brouillard  Fortes neiges  Fortes précipitations  Vent > 20 kt
SIGMETs :   Divers  Orages  Givrage  Turbulence  Onde Orograph.  Cendres Volcan.







- Altitude de l'aérodrome : 297 ft
- Code IATA : UIP
- Voir les cartes d'approche


LFRQ - Quimper Pluguffan

DERNIER METAR :
  • 230900Z AUTO 21008KT 9999 -RA BKN011/// BKN017/// BKN026/// ///TCU 15/14 Q1013 BECMG 4000 RA OVC009

METARs EXPIRÉS :
  • 230830Z AUTO 20007KT 180V240 9999 -RA FEW018/// SCT023/// BKN035/// ///TCU 14/13 Q1013 BECMG 4000 RA OVC009
  • 230800Z AUTO 22011KT 190V250 9999 RA FEW009/// SCT024/// BKN038/// ///TCU 14/13 Q1013 BECMG 4000 RA OVC009
  • 230730Z AUTO 19009KT 9999 -RA BKN012/// BKN017/// BKN029/// ///TCU 15/15 Q1012 BECMG 4000 RA OVC009
  • 230700Z AUTO 19007KT 160V220 9999 SCT022 OVC100 15/14 Q1012 BECMG 4000 RA OVC009
  • 230630Z AUTO 19007KT 9999 FEW019 BKN110 OVC130 15/15 Q1012 BECMG 4000 RA OVC009

TAF TAF LFRQ
Valide du 23 à 06h jusqu'au 24 à 06h UTC


230500Z 2306/2406 20005KT 9999 FEW017 BKN200
BECMG 2306/2309 20012G22KT 4000 RA OVC009
TEMPO 2311/2318 2000 RADZ OVC003
TEMPO 2313/2315 20018G32KT
PROB30
TEMPO 2400/2405 TSRA BKN004 SCT008CB
Pas de NOTAMs connus pour ce terrain.



MET'MAP, la Météo Aéronautique d'un coup d'oeil ! - Copyright ORBIFLY Décembre 2007 - Disclaimer

ORBIFLY MET'MAP TEAM :

Programmation & Développement : Alexandra Zaïnal
Conception & Développement : Baudouin d'Aumeries
Co-Programmation & Développement : Marc-Olivier Méhu
Soutien technique & logistique : Manuel Goepfert

Contact : metmap@orbifly.com




SOURCES & CREDITS :

   NOAA